KMLU/MLU METAR and TAF weather

Enter ICAO airport designator
Station Type Date Time Source
KMLU METAR 2022/07/01 00:53 UTC NOAA

KMLU 010053Z 20008KT 10SM FEW120 26/21 A3003 RMK AO2 LTG DSNT W AND NW SLP168 T02560211


Station Type Date Time Source
KMLU Decoded METAR 2022/07/01 00:53 UTC NOAA

MONROE REGIONAL AIRPORT, LA, United States (KMLU) 32-31N 092-02W 29M
Jun 30, 2022 - 08:53 PM EDT / 2022.07.01 0053 UTC
Wind: from the SSW (200 degrees) at 9 MPH (8 KT):0
Visibility: 10 mile(s):0
Sky conditions: mostly clear
Weather: Lightning observed
Temperature: 78.1 F (25.6 C)
Dew Point: 70.0 F (21.1 C)
Relative Humidity: 76%
Pressure (altimeter): 30.03 in. Hg (1016 hPa)
ob: KMLU 010053Z 20008KT 10SM FEW120 26/21 A3003 RMK AO2 LTG DSNT W AND NW SLP168 T02560211
cycle: 1

Station Type Date Time Source
KMLU TAF 2022/06/30 21:09 UTC NOAA

TAF
AMD KMLU 302107Z 3021/0118 06006KT P6SM SCT050
FM302200 10007KT P6SM VCTS SCT040 BKN060CB
TEMPO 3023/0101 VRB15G25KT 2SM TSRA BR BKN020CB
FM010100 13003KT P6SM FEW035 BKN090 BKN250
FM010500 VRB03KT P6SM SCT100 BKN250
FM011100 VRB03KT 3SM BR BKN004
FM011400 VRB03KT P6SM BKN007
FM011600 VRB03KT P6SM BKN017

Example: see airport list